Bruksela, Belgia

15:45 CEST dnia 22-październik-2014 (GMT +0200)
Berg | Change Station
CLOSE
Current Station
Stacja PWS
Location: Kampenhout, VLAAMS BRABANT
n.p.m.: 54 ft
Najbliższa stacja pogodowa

Wysokość 54 ft 50.93 °N, 4.53 °E | Updated 3 minutes ago

Light Rain Showers
lekkie przelotne deszcze
55.0 ° F
Odczuwalna 55.0 ° F
Płn.
1.0
Wiatr zmienny Wiatr od północny
Gusts 11.0 mph

Dziś
Wysoka -- | Niska -- ° F
--% Prawdop. opadów
Wczoraj
Wysoka -- | Niska -- ° F
Precip. -- cali
8:16 AM 6:35 PM
Zmniejszający się sierp Księżyca, 2% visible
Ciśnienie 30.18 cali
Widzialność 6.2 mil
chmury Niewiele 2500 ft
obłoki zanikające 3000 ft
przewaga chmur 4500 ft
Punkt rosy 47 ° F
Wilgotność 74%
Opady deszczu 0.09 cali
grubość pokrywy śnieżnej Niedostępne.
UV 0.6 z 12
Pyłki Niedostępne.
Jakość powietrza Niedostępne.
Flu Activity Niedostępne.
METAR EBBE 221325Z 34008KT 9999 -SHRA FEW025 SCT030 BKN045 10/06 Q1022 BLU BLU TEMPO WHT

More Conditions Fewer Conditions

Ciśnienie 30.18 cali
Widzialność 6.2 mil
chmury Niewiele 2500 ft
obłoki zanikające 3000 ft
przewaga chmur 4500 ft
Punkt rosy 47 ° F
Wilgotność 74%
Opady deszczu 0.09 cali
grubość pokrywy śnieżnej Niedostępne.
UV 0.6 z 12
Pyłki Niedostępne.
Jakość powietrza Niedostępne.
Flu Activity Niedostępne.
METAR EBBE 221325Z 34008KT 9999 -SHRA FEW025 SCT030 BKN045 10/06 Q1022 BLU BLU TEMPO WHT

More Conditions Fewer Conditions

10-Day Weather Forecast

Almanac

Astronomia

Oct. 22, 2014 Wschód Zachów
Aktualny czas 08:16 CEST 18:35 CEST
Zmierzch cywilny 07:42 CEST 19:09 CEST
Zmierzch żeglarski 07:04 CEST 19:47 CEST
świt/zmierzch astronomiczny 06:26 CEST 20:25 CEST
Księżyc 06:33 CEST 18:00 CEST
całkowite oświetlenie 11h 26m
Długość dnia
10h 19m
Tomorrow will be 3m 41s shorter.
Zmniejszający się sierp Księżyca, 2% of the Moon is Illuminated
Dziś
Zmniejszający się sierp Księżyca
Październik 23
Nowy
Październik 30
Pierwsza kwadra
Listopad 6
Pełnia Księżyca
Listopad 14
Ostatnia kwadra

Wczorajsze ekstrema

Country Highs Country Lows

Community

WunderPhotos

Upload Photos

1,763,919 zdjęcia zostały przesłane!

Nearby

Jakość powietrza

Not available.

Głębokość pokrywy śnieżnej

Not available.

Aktywność sejsmiczna

Miejscowość Distance Mag. Time & Date
No recent earthquake activity has been reported nearby.
Minimum magnitude displayed is 2.5.

Temperatury wody na wybrzeżu

Miejsce Temperatura
Nie znaleziono stacji

Najbliższa stacja pogodowa